Bert Mooney Airport
KBTM : rendu visible

Aérodrome :











RETROUVEZ-NOUS SUR...

 
LOGIN :

S'inscrire | Disclaimer

   EN    FR    IT 

 









Légende :    VFR   VFR Marginal   IFR   IFR Intensif   IFR Très Intensif
Visi : 
Plafond : 
>= 8 km
>= 3000ft
5 à 8 km
1000 à 3000 ft
1500m à 5 km
500 à 1000 ft
800 à 1500m
200 à 500 ft
< 800m
< 200 ft
Symboles :   Orages  Brouillard  Fortes neiges  Fortes précipitations  Vent > 20 kt






- Altitude de l'aérodrome : 5550 ft
- Code IATA : BTM


KBTM - Bert Mooney

DERNIER METAR :
  • 311953Z AUTO 25017G26KT 10SM CLR 24/M01 A2991 RMK AO2 PK WND 26026/1952 SLP061 T02391006 $

METARs EXPIRÉS :
  • 311853Z AUTO 29011G20KT 10SM CLR 22/01 A2991 RMK AO2 PK WND 29026/1823 SLP063 T02220011 $
  • 311753Z AUTO 26010G24KT 10SM CLR 22/03 A2991 RMK AO2 SLP061 T02170028 10239 20167 53012 $

TAF KBTM
Valide du 31 à 18h jusqu'au 01 à 18h UTC


311726Z 3118/0118 27013G24KT P6SM BKN250
FM311900 29020G30KT P6SM SCT250
FM010300 32010KT P6SM SKC
FIR KZLC / Amérique du Nord



MET'MAP, la Météo Aéronautique d'un coup d'oeil ! - Copyright ORBIFLY Décembre 2007 - Disclaimer

ORBIFLY MET'MAP TEAM :

Programmation & Développement : Alexandra Zaïnal
Sur une idée originale de : Baudouin d'Aumeries
Assistance à la programmation : Marc-Olivier Méhu
Soutien technique & logistique : Manuel Goepfert

Contact : metmap@orbifly.com




SOURCES & CREDITS :

   NOAA       Earth
Advisory